Time;durP1;ratioP1;P1;durP2;ratioP2;P2;SDS_P1;SDS_P2;PMS_P1;PMS_P2;Temp;Humidity;BMP_temperature;BMP_pressure;BME280_temperature;BME280_humidity;BME280_pressure;Samples;Min_cycle;Max_cycle;Signal;HPM_P1;HPM_P2
2023/02/26 00:01:23;;;;;;;2.67;1.52;;;0.40;1.00;;;;;;5076037;28;20202;-77
2023/02/26 00:10:57;;;;;;;5.05;2.03;;;0.60;1.00;;;;;;5061315;28;20225;-75
2023/02/26 00:13:33;;;;;;;1.40;1.30;;;0.50;1.00;;;;;;5076377;28;20606;-75
2023/02/26 00:16:30;;;;;;;2.83;2.20;;;0.50;1.00;;;;;;5076151;28;20174;-74
2023/02/26 00:18:59;;;;;;;3.65;1.90;;;0.50;1.00;;;;;;4983341;28;20198;-74
2023/02/26 00:21:34;;;;;;;4.28;1.75;;;0.50;1.00;;;;;;4974785;28;20210;-74
2023/02/26 00:27:21;;;;;;;2.47;1.95;;;0.50;1.00;;;;;;4975286;28;20218;-77
2023/02/26 00:33:09;;;;;;;2.35;1.90;;;0.50;1.00;;;;;;4975297;28;20559;-77
2023/02/26 00:36:09;;;;;;;3.90;2.00;;;0.50;1.00;;;;;;4980940;28;20190;-77
2023/02/26 00:42:03;;;;;;;3.38;1.50;;;0.40;1.00;;;;;;4955477;29;20643;-77
2023/02/26 00:44:33;;;;;;;2.10;1.90;;;0.40;1.00;;;;;;4977200;28;20186;-77
2023/02/26 00:47:25;;;;;;;3.83;1.90;;;0.40;1.00;;;;;;4969063;28;20256;-77
2023/02/26 00:50:16;;;;;;;2.67;1.70;;;0.40;1.00;;;;;;4974497;28;20206;-77
2023/02/26 00:53:13;;;;;;;3.28;1.92;;;0.50;1.00;;;;;;4974712;28;20241;-77
2023/02/26 00:55:38;;;;;;;4.88;1.58;;;0.60;1.00;;;;;;5030646;28;20550;-75
2023/02/26 00:58:04;;;;;;;1.83;1.40;;;0.60;1.00;;;;;;5075376;28;20183;-74
2023/02/26 01:00:30;;;;;;;2.30;1.37;;;0.70;1.00;;;;;;5085220;28;20247;-74
2023/02/26 01:02:56;;;;;;;1.93;1.60;;;0.80;1.00;;;;;;5082145;28;20752;-75
2023/02/26 01:05:27;;;;;;;3.95;1.67;;;0.80;1.00;;;;;;5042224;28;20762;-74
2023/02/26 01:08:14;;;;;;;2.97;1.55;;;0.90;1.00;;;;;;5075261;28;20261;-75
2023/02/26 01:17:49;;;;;;;2.78;1.60;;;1.20;1.00;;;;;;5075212;28;20180;-77
2023/02/26 01:20:24;;;;;;;1.92;1.40;;;1.30;1.00;;;;;;5070665;28;20203;-77
2023/02/26 01:23:11;;;;;;;3.15;1.20;;;1.40;1.00;;;;;;5074729;28;20228;-77
2023/02/26 01:26:05;;;;;;;4.03;1.50;;;1.40;1.00;;;;;;5075088;28;20186;-75
2023/02/26 01:28:45;;;;;;;4.20;1.35;;;1.50;1.00;;;;;;5078936;28;20174;-75
2023/02/26 01:31:25;;;;;;;1.90;1.75;;;1.50;1.00;;;;;;5069008;28;20225;-75
2023/02/26 01:34:03;;;;;;;3.08;1.70;;;1.60;1.00;;;;;;5074281;28;20182;-75
2023/02/26 01:37:14;;;;;;;4.28;1.63;;;1.60;1.00;;;;;;5074414;28;20175;-77
2023/02/26 01:39:47;;;;;;;2.95;2.00;;;1.60;1.00;;;;;;5074276;28;20181;-74
2023/02/26 01:42:18;;;;;;;2.45;1.58;;;1.70;1.00;;;;;;5069652;28;20217;-75
2023/02/26 01:44:59;;;;;;;3.45;1.45;;;1.70;1.00;;;;;;5072258;28;20210;-75
2023/02/26 01:47:41;;;;;;;1.33;1.08;;;1.70;1.00;;;;;;5074620;28;20159;-75
2023/02/26 01:50:17;;;;;;;2.03;1.60;;;1.80;1.00;;;;;;5054522;28;20241;-74
2023/02/26 01:52:50;;;;;;;1.38;1.23;;;1.70;1.00;;;;;;5066318;28;20634;-75
2023/02/26 01:55:41;;;;;;;3.42;1.85;;;1.70;1.00;;;;;;5073768;28;20217;-77
2023/02/26 01:58:38;;;;;;;4.43;1.38;;;1.60;1.00;;;;;;5073935;28;20652;-77
2023/02/26 02:07:49;;;;;;;2.30;1.35;;;1.40;1.00;;;;;;5070415;28;20255;-77
2023/02/26 02:10:21;;;;;;;1.60;1.30;;;1.30;1.00;;;;;;5073870;28;20257;-75
2023/02/26 02:12:55;;;;;;;2.90;1.50;;;1.20;1.00;;;;;;5063083;28;20266;-75
2023/02/26 02:15:45;;;;;;;4.60;1.60;;;1.20;1.00;;;;;;5061250;28;20201;-75
2023/02/26 02:18:34;;;;;;;4.55;1.50;;;1.30;1.00;;;;;;5073376;28;20178;-75
2023/02/26 02:21:02;;;;;;;1.67;1.30;;;1.40;1.00;;;;;;5073451;28;20253;-75
2023/02/26 02:24:10;;;;;;;1.90;1.27;;;1.40;1.00;;;;;;5073534;28;20167;-75
2023/02/26 02:33:50;;;;;;;3.22;1.10;;;1.60;1.00;;;;;;5073059;28;20204;-77
2023/02/26 02:40:01;;;;;;;5.55;1.88;;;1.60;1.00;;;;;;5073071;28;20178;-75
2023/02/26 02:42:48;;;;;;;2.80;1.30;;;1.50;1.00;;;;;;5089510;28;20166;-76
2023/02/26 02:45:44;;;;;;;2.33;1.05;;;1.60;1.00;;;;;;5073604;28;20189;-75
2023/02/26 02:48:37;;;;;;;1.77;1.00;;;1.50;1.00;;;;;;5061171;28;20175;-75
2023/02/26 02:51:25;;;;;;;3.08;0.80;;;1.50;1.00;;;;;;4973310;28;20554;-75
2023/02/26 02:54:35;;;;;;;0.80;0.80;;;1.40;1.00;;;;;;4991603;28;20185;-75
2023/02/26 02:57:25;;;;;;;2.50;0.90;;;1.40;1.00;;;;;;4948570;28;20190;-75
2023/02/26 03:00:12;;;;;;;2.05;0.80;;;1.30;1.00;;;;;;4972193;28;20197;-74
2023/02/26 03:02:56;;;;;;;1.08;1.02;;;1.30;1.00;;;;;;4970105;28;20650;-75
2023/02/26 03:05:27;;;;;;;0.98;0.90;;;1.10;1.00;;;;;;4967227;28;20191;-74
2023/02/26 03:08:07;;;;;;;1.25;0.93;;;1.10;1.00;;;;;;4969086;28;20338;-74
2023/02/26 03:10:51;;;;;;;1.08;0.98;;;1.00;1.00;;;;;;4956559;28;20217;-77
2023/02/26 03:16:56;;;;;;;1.25;1.15;;;0.80;1.00;;;;;;4950770;28;20182;-77
2023/02/26 03:19:43;;;;;;;2.30;1.55;;;0.70;1.00;;;;;;4968523;28;20190;-77
2023/02/26 03:22:56;;;;;;;3.13;1.50;;;0.60;1.00;;;;;;4960287;28;20190;-77
2023/02/26 03:32:30;;;;;;;3.28;2.08;;;0.40;1.00;;;;;;5075833;28;20546;-77
2023/02/26 03:38:56;;;;;;;3.63;2.40;;;0.40;1.00;;;;;;5075782;28;20185;-77
2023/02/26 03:45:19;;;;;;;1.70;1.60;;;0.30;1.00;;;;;;5069010;28;20258;-77
2023/02/26 03:47:52;;;;;;;3.60;1.92;;;0.30;1.00;;;;;;4995091;28;20252;-77
2023/02/26 03:50:24;;;;;;;2.97;1.98;;;0.20;1.00;;;;;;4978440;28;20202;-78
2023/02/26 03:53:45;;;;;;;2.92;1.75;;;0.20;1.00;;;;;;4995033;28;20186;-77
2023/02/26 03:59:34;;;;;;;3.95;1.80;;;0.20;1.00;;;;;;5013971;28;20691;-77
2023/02/26 04:05:28;;;;;;;1.55;1.45;;;0.10;1.00;;;;;;5014340;28;20710;-77
2023/02/26 04:08:03;;;;;;;7.40;1.92;;;0.10;1.00;;;;;;5014486;28;20232;-78
2023/02/26 04:11:02;;;;;;;1.70;1.60;;;0.10;1.00;;;;;;5014743;28;20213;-74
2023/02/26 04:13:46;;;;;;;5.45;1.98;;;0.10;1.00;;;;;;5008618;28;20181;-75
2023/02/26 04:16:27;;;;;;;2.97;2.08;;;0.10;1.00;;;;;;5018172;28;20575;-74
2023/02/26 04:18:57;;;;;;;3.72;2.03;;;0.10;1.00;;;;;;5012478;28;20196;-74
2023/02/26 04:21:27;;;;;;;6.30;2.05;;;0.10;1.00;;;;;;5014247;28;20717;-74
2023/02/26 04:23:52;;;;;;;2.30;1.90;;;0.10;1.00;;;;;;5037367;28;20286;-74
2023/02/26 04:26:18;;;;;;;2.20;1.73;;;0.10;1.00;;;;;;5076199;28;20203;-75
2023/02/26 04:28:45;;;;;;;2.50;2.00;;;0.10;1.00;;;;;;5075867;28;20167;-74
2023/02/26 04:31:21;;;;;;;1.80;1.70;;;0.10;1.00;;;;;;5075684;28;20695;-74
2023/02/26 04:33:46;;;;;;;3.42;2.10;;;0.10;1.00;;;;;;5075490;28;20198;-74
2023/02/26 04:36:27;;;;;;;3.63;2.07;;;0.10;1.00;;;;;;5074705;28;20213;-74
2023/02/26 04:39:14;;;;;;;1.65;1.55;;;0.00;1.00;;;;;;5073492;28;20529;-75
2023/02/26 04:41:57;;;;;;;2.33;2.20;;;0.10;1.00;;;;;;5072508;28;20198;-78
2023/02/26 04:45:14;;;;;;;5.18;2.45;;;0.00;1.00;;;;;;5070655;28;20214;-78
2023/02/26 04:47:45;;;;;;;4.97;2.80;;;0.10;1.00;;;;;;5073038;28;20179;-77
2023/02/26 04:50:10;;;;;;;4.07;2.42;;;0.00;1.00;;;;;;5056918;28;20547;-77
2023/02/26 04:55:58;;;;;;;2.50;2.25;;;0.00;1.00;;;;;;5074384;28;20229;-74
2023/02/26 04:58:27;;;;;;;4.63;1.93;;;-0.10;1.00;;;;;;5075761;28;20183;-74
2023/02/26 05:00:54;;;;;;;4.47;2.20;;;-0.10;1.00;;;;;;5068711;28;20249;-74
2023/02/26 05:03:50;;;;;;;3.90;2.92;;;-0.10;1.00;;;;;;5067795;28;20593;-74
2023/02/26 05:06:27;;;;;;;3.30;2.20;;;-0.20;1.00;;;;;;5067107;28;20171;-74
2023/02/26 05:09:14;;;;;;;5.70;2.45;;;-0.20;1.00;;;;;;5057141;28;20559;-74
2023/02/26 05:12:02;;;;;;;2.90;2.13;;;-0.20;1.00;;;;;;5074225;28;20183;-77
2023/02/26 05:17:50;;;;;;;3.05;2.10;;;-0.10;1.00;;;;;;5066792;28;20193;-77
2023/02/26 05:23:37;;;;;;;2.25;2.05;;;-0.20;1.00;;;;;;5087053;28;20229;-77
2023/02/26 05:26:03;;;;;;;3.47;1.90;;;-0.20;1.00;;;;;;5074925;28;20557;-74
2023/02/26 05:28:30;;;;;;;8.00;1.67;;;-0.30;1.00;;;;;;5063634;28;20179;-75
2023/02/26 05:31:08;;;;;;;5.38;2.13;;;-0.20;1.00;;;;;;5084331;28;20408;-75
2023/02/26 05:33:45;;;;;;;2.33;2.13;;;-0.20;1.00;;;;;;5062122;28;20190;-75
2023/02/26 05:36:27;;;;;;;4.05;2.28;;;-0.10;1.00;;;;;;5084957;28;20252;-75
2023/02/26 05:39:09;;;;;;;3.63;1.90;;;-0.10;1.00;;;;;;5065799;28;20179;-75
2023/02/26 05:42:26;;;;;;;5.10;2.10;;;0.00;1.00;;;;;;5074163;28;20198;-77
2023/02/26 05:48:13;;;;;;;7.43;1.95;;;-0.10;1.00;;;;;;5062382;28;20174;-77
2023/02/26 05:51:14;;;;;;;4.70;2.20;;;-0.10;1.00;;;;;;5073708;28;20194;-78
2023/02/26 05:54:09;;;;;;;3.17;1.75;;;-0.10;1.00;;;;;;5067613;28;20191;-77
2023/02/26 05:56:39;;;;;;;4.20;1.63;;;-0.10;1.00;;;;;;5074502;28;20261;-75
2023/02/26 05:59:15;;;;;;;1.98;1.70;;;-0.10;1.00;;;;;;5074173;28;20189;-75
2023/02/26 06:01:41;;;;;;;3.47;1.60;;;0.00;1.00;;;;;;5060168;28;20207;-74
2023/02/26 06:04:15;;;;;;;2.20;1.95;;;0.00;1.00;;;;;;5083210;28;20253;-75
2023/02/26 06:06:40;;;;;;;5.47;2.08;;;0.00;1.00;;;;;;5060453;28;20183;-75
2023/02/26 06:09:21;;;;;;;2.07;1.90;;;0.20;1.00;;;;;;5062471;28;20180;-75
2023/02/26 06:12:08;;;;;;;5.47;2.25;;;0.10;1.00;;;;;;5073783;28;20163;-75
2023/02/26 06:14:34;;;;;;;4.03;1.80;;;0.10;1.00;;;;;;5065762;28;20179;-74
2023/02/26 06:17:05;;;;;;;3.50;1.60;;;0.20;1.00;;;;;;5074085;28;20267;-75
2023/02/26 06:19:45;;;;;;;8.85;1.70;;;0.20;1.00;;;;;;5070985;28;20249;-76
2023/02/26 06:22:10;;;;;;;2.97;1.85;;;0.10;1.00;;;;;;5060105;28;20197;-74
2023/02/26 06:24:36;;;;;;;2.60;1.37;;;0.10;1.00;;;;;;5072553;28;20175;-75
2023/02/26 06:27:26;;;;;;;5.00;1.90;;;0.10;1.00;;;;;;5070134;28;20208;-83
2023/02/26 06:30:04;;;;;;;2.35;1.35;;;0.10;1.00;;;;;;5069623;28;20250;-82
2023/02/26 06:32:33;;;;;;;1.90;1.70;;;0.10;1.00;;;;;;5071831;28;20323;-81
2023/02/26 06:35:05;;;;;;;8.13;1.42;;;0.00;1.00;;;;;;5074748;28;20213;-82
2023/02/26 06:37:33;;;;;;;3.15;2.00;;;0.10;1.00;;;;;;5072656;28;20182;-81
2023/02/26 06:40:03;;;;;;;7.07;1.80;;;0.10;1.00;;;;;;5079827;28;20312;-82
2023/02/26 06:42:33;;;;;;;1.45;1.35;;;0.10;1.00;;;;;;5062618;28;20582;-80
2023/02/26 06:45:04;;;;;;;4.03;1.67;;;0.10;1.00;;;;;;5073009;28;20641;-79
2023/02/26 06:47:33;;;;;;;2.97;1.67;;;0.20;1.00;;;;;;5072800;28;20175;-79
2023/02/26 06:49:59;;;;;;;2.75;1.60;;;0.10;1.00;;;;;;5068407;28;20191;-79
2023/02/26 06:52:24;;;;;;;4.30;1.50;;;0.20;1.00;;;;;;5064805;28;20187;-79
2023/02/26 06:55:03;;;;;;;3.00;1.90;;;0.20;1.00;;;;;;5060690;28;20421;-79
2023/02/26 06:57:33;;;;;;;3.60;1.80;;;0.20;1.00;;;;;;5072683;28;20595;-83
2023/02/26 07:00:32;;;;;;;2.13;1.50;;;0.20;1.00;;;;;;5069344;28;20262;-82
2023/02/26 07:03:04;;;;;;;1.55;1.50;;;0.20;1.00;;;;;;5070997;28;20630;-82
2023/02/26 07:05:34;;;;;;;5.60;1.95;;;0.20;1.00;;;;;;5077214;28;20258;-82
2023/02/26 07:08:04;;;;;;;4.25;1.45;;;0.20;1.00;;;;;;5058241;28;20253;-82
2023/02/26 07:10:56;;;;;;;4.60;1.50;;;0.20;1.00;;;;;;5077200;28;20232;-82
2023/02/26 07:13:22;;;;;;;3.58;1.70;;;0.20;1.00;;;;;;5076538;28;20179;-72
2023/02/26 07:15:48;;;;;;;2.57;1.87;;;0.30;1.00;;;;;;5070579;28;20712;-71
2023/02/26 07:18:15;;;;;;;2.27;1.23;;;0.40;1.00;;;;;;5077164;28;20266;-71
2023/02/26 07:20:48;;;;;;;1.80;1.70;;;0.50;1.00;;;;;;5072986;28;20191;-71
2023/02/26 07:23:15;;;;;;;3.95;2.00;;;0.50;1.00;;;;;;5076767;28;20225;-71
2023/02/26 07:25:41;;;;;;;2.10;1.63;;;0.50;1.00;;;;;;5077043;28;20172;-71
2023/02/26 07:28:09;;;;;;;2.90;1.70;;;0.60;1.00;;;;;;5077125;28;20308;-71
2023/02/26 07:30:35;;;;;;;4.63;1.60;;;0.70;1.00;;;;;;5073462;28;20262;-71
2023/02/26 07:33:01;;;;;;;1.93;1.73;;;0.80;1.00;;;;;;5075194;28;20262;-71
2023/02/26 07:35:27;;;;;;;2.17;1.50;;;0.90;1.00;;;;;;5076528;28;20182;-71
2023/02/26 07:37:52;;;;;;;1.90;1.70;;;1.00;1.00;;;;;;5075659;28;20591;-71
2023/02/26 07:40:18;;;;;;;2.33;1.47;;;1.10;1.00;;;;;;5078191;28;20289;-71
2023/02/26 07:42:45;;;;;;;1.87;1.77;;;1.20;1.00;;;;;;5081698;28;20175;-71
2023/02/26 07:45:21;;;;;;;2.90;1.73;;;1.30;1.00;;;;;;5076664;28;20401;-71
2023/02/26 07:47:51;;;;;;;3.90;1.50;;;1.50;1.00;;;;;;5064077;28;20175;-71
2023/02/26 07:50:18;;;;;;;4.38;1.85;;;1.70;1.00;;;;;;5075597;28;20190;-72
2023/02/26 07:53:03;;;;;;;2.17;1.67;;;1.80;1.00;;;;;;5079954;28;20669;-73
2023/02/26 07:55:33;;;;;;;5.18;1.40;;;1.90;1.00;;;;;;5065614;28;20175;-72
2023/02/26 07:57:59;;;;;;;1.73;1.60;;;1.90;1.00;;;;;;5079727;28;20638;-72
2023/02/26 08:00:24;;;;;;;3.07;1.83;;;1.90;1.00;;;;;;5072122;28;20198;-72
2023/02/26 08:02:57;;;;;;;4.00;1.70;;;2.00;1.00;;;;;;5075407;28;20183;-72
2023/02/26 08:05:27;;;;;;;1.60;1.50;;;2.00;1.00;;;;;;5079370;28;20197;-72
2023/02/26 08:07:53;;;;;;;1.40;1.30;;;1.90;1.00;;;;;;5075002;28;20577;-72
2023/02/26 08:10:18;;;;;;;1.60;1.50;;;1.80;1.00;;;;;;5074127;28;20258;-72
2023/02/26 08:12:44;;;;;;;1.80;1.23;;;1.80;1.00;;;;;;5078387;28;20181;-71
2023/02/26 08:15:15;;;;;;;1.53;1.43;;;1.80;1.00;;;;;;5075381;28;20179;-72
2023/02/26 08:17:52;;;;;;;2.67;1.33;;;1.70;1.00;;;;;;5070254;28;20232;-71
2023/02/26 08:20:18;;;;;;;1.73;1.63;;;1.70;1.00;;;;;;5074482;28;20237;-71
2023/02/26 08:22:44;;;;;;;1.30;1.20;;;1.70;1.00;;;;;;5075704;28;20272;-72
2023/02/26 08:25:10;;;;;;;1.40;1.30;;;1.80;1.00;;;;;;5061677;28;20425;-71
2023/02/26 08:27:36;;;;;;;2.47;1.40;;;1.80;1.00;;;;;;5076135;28;20246;-70
2023/02/26 08:30:03;;;;;;;3.27;1.60;;;1.80;1.00;;;;;;5075706;28;20923;-71
2023/02/26 08:32:56;;;;;;;2.05;1.33;;;1.90;1.00;;;;;;5068621;28;20401;-77
2023/02/26 08:35:27;;;;;;;1.70;1.50;;;1.90;1.00;;;;;;5064230;28;20171;-72
2023/02/26 08:37:53;;;;;;;1.42;1.20;;;2.10;1.00;;;;;;5074454;28;20180;-72
2023/02/26 08:40:21;;;;;;;2.20;1.40;;;2.20;1.00;;;;;;5071986;28;20209;-72
2023/02/26 08:42:49;;;;;;;2.38;1.50;;;2.20;1.00;;;;;;5075093;28;20183;-71
2023/02/26 08:45:15;;;;;;;2.17;1.52;;;2.20;1.00;;;;;;5056969;28;20522;-71
2023/02/26 08:47:45;;;;;;;2.60;1.50;;;2.20;1.00;;;;;;5074160;28;20179;-71
2023/02/26 08:50:12;;;;;;;3.50;1.40;;;2.20;1.00;;;;;;5084680;28;20186;-71
2023/02/26 08:52:37;;;;;;;1.63;1.40;;;2.30;1.00;;;;;;5078621;28;20175;-71
2023/02/26 08:55:03;;;;;;;1.47;1.40;;;2.30;1.00;;;;;;5071116;28;20265;-72
2023/02/26 09:00:52;;;;;;;4.32;1.90;;;2.30;1.00;;;;;;5062391;28;20238;-84
2023/02/26 09:06:39;;;;;;;3.55;1.60;;;2.30;1.00;;;;;;5066273;28;20217;-78
2023/02/26 09:12:27;;;;;;;1.70;1.50;;;2.50;1.00;;;;;;5074767;28;20656;-77
2023/02/26 09:15:08;;;;;;;1.70;1.60;;;2.50;1.00;;;;;;5075423;28;20171;-74
2023/02/26 09:17:34;;;;;;;2.80;1.60;;;2.60;1.00;;;;;;5075145;28;20178;-74
2023/02/26 09:20:03;;;;;;;1.90;1.40;;;2.70;1.00;;;;;;5074580;28;20177;-74
2023/02/26 09:22:29;;;;;;;1.80;1.60;;;2.90;1.00;;;;;;5070904;28;20163;-75
2023/02/26 09:24:55;;;;;;;1.33;1.33;;;3.00;1.00;;;;;;5067562;28;20191;-75
2023/02/26 09:27:39;;;;;;;1.13;1.03;;;3.10;1.00;;;;;;5074444;28;20190;-75
2023/02/26 09:30:17;;;;;;;2.20;1.00;;;3.20;1.00;;;;;;5063198;28;20622;-75
2023/02/26 09:32:57;;;;;;;2.50;2.30;;;3.20;1.00;;;;;;5064939;28;20195;-75
2023/02/26 09:35:33;;;;;;;1.63;1.52;;;3.20;1.00;;;;;;5074434;28;20290;-76
2023/02/26 09:38:21;;;;;;;2.90;1.50;;;3.20;1.00;;;;;;5074455;28;20174;-75
2023/02/26 09:41:14;;;;;;;2.00;1.40;;;3.20;1.00;;;;;;5073993;28;20201;-75
2023/02/26 09:44:20;;;;;;;6.60;1.45;;;3.30;1.00;;;;;;5074466;28;20174;-76
2023/02/26 09:47:20;;;;;;;1.55;1.30;;;3.20;1.00;;;;;;5074054;28;20162;-75
2023/02/26 09:50:06;;;;;;;2.50;1.00;;;3.20;1.00;;;;;;5074153;28;20595;-76
2023/02/26 09:55:58;;;;;;;2.65;1.48;;;3.00;1.00;;;;;;5064645;28;20653;-75
2023/02/26 09:58:52;;;;;;;1.17;1.15;;;3.20;1.00;;;;;;5074386;28;20586;-77
2023/02/26 10:08:52;;;;;;;3.70;1.20;;;3.70;1.00;;;;;;5074102;28;20208;-78
2023/02/26 10:15:08;;;;;;;1.57;1.03;;;4.20;1.00;;;;;;5066539;28;20743;-78
2023/02/26 10:18:02;;;;;;;0.90;0.90;;;4.30;1.00;;;;;;5063281;28;20424;-78
2023/02/26 10:21:08;;;;;;;2.00;1.20;;;4.20;1.00;;;;;;5067281;28;20450;-78
2023/02/26 10:27:16;;;;;;;1.47;0.90;;;4.20;1.00;;;;;;5073364;28;20411;-78
2023/02/26 10:29:59;;;;;;;1.17;0.90;;;3.90;1.00;;;;;;5073869;28;20916;-75
2023/02/26 10:39:26;;;;;;;1.30;1.08;;;3.70;1.00;;;;;;5066676;28;20233;-76
2023/02/26 10:42:24;;;;;;;0.80;0.80;;;3.80;1.00;;;;;;5060927;28;20202;-75
2023/02/26 10:55:14;;;;;;;1.07;0.97;;;4.80;1.00;;;;;;5062441;28;20501;-76
2023/02/26 10:58:10;;;;;;;2.20;0.90;;;5.00;1.00;;;;;;5073010;28;20833;-77
2023/02/26 11:01:29;;;;;;;0.90;0.90;;;5.10;1.00;;;;;;5071027;28;20446;-75
2023/02/26 11:04:32;;;;;;;0.70;0.70;;;5.40;1.00;;;;;;5003267;28;20459;-75
2023/02/26 11:07:00;;;;;;;0.70;0.70;;;5.40;1.00;;;;;;5011355;28;20447;-75
2023/02/26 11:10:08;;;;;;;0.70;0.70;;;5.50;1.00;;;;;;5011652;28;20927;-75
2023/02/26 11:12:46;;;;;;;0.80;0.80;;;5.70;1.00;;;;;;5011467;28;20416;-75
2023/02/26 11:15:17;;;;;;;0.70;0.70;;;5.70;1.00;;;;;;5011897;28;20411;-77
2023/02/26 11:17:46;;;;;;;1.53;0.70;;;5.60;1.00;;;;;;5012939;28;20416;-77
2023/02/26 11:30:18;;;;;;;1.50;0.90;;;5.60;1.00;;;;;;4999615;28;20408;-75
2023/02/26 11:32:55;;;;;;;0.60;0.60;;;5.50;1.00;;;;;;5020276;28;20423;-76
2023/02/26 11:35:25;;;;;;;1.13;0.93;;;5.40;1.00;;;;;;5031019;28;20410;-76
2023/02/26 11:38:17;;;;;;;2.23;1.00;;;5.40;1.00;;;;;;5011164;28;20428;-75
2023/02/26 11:41:03;;;;;;;5.33;0.90;;;5.60;1.00;;;;;;5047030;28;20556;-76
2023/02/26 11:43:42;;;;;;;1.13;0.60;;;5.70;1.00;;;;;;5068030;28;20446;-76
2023/02/26 11:46:09;;;;;;;0.67;0.67;;;5.60;1.00;;;;;;5074741;28;20556;-77
2023/02/26 11:48:58;;;;;;;0.97;0.60;;;5.60;1.00;;;;;;5063119;28;20471;-77
2023/02/26 11:51:33;;;;;;;1.57;0.70;;;5.60;1.00;;;;;;5076409;28;20433;-77
2023/02/26 11:54:00;;;;;;;0.80;0.63;;;5.50;1.00;;;;;;5076421;28;20535;-77
2023/02/26 11:56:39;;;;;;;1.43;0.80;;;5.70;1.00;;;;;;5058297;28;20428;-76
2023/02/26 12:02:33;;;;;;;1.17;0.50;;;5.90;1.00;;;;;;5076148;28;20416;-77
2023/02/26 12:05:15;;;;;;;1.07;0.50;;;6.10;1.00;;;;;;5076672;28;20405;-78
2023/02/26 12:14:33;;;;;;;3.90;0.50;;;6.10;1.00;;;;;;5070543;28;20826;-77
2023/02/26 12:17:30;;;;;;;1.50;0.50;;;6.00;1.00;;;;;;5055259;28;20469;-77
2023/02/26 12:23:39;;;;;;;0.80;0.70;;;6.00;1.00;;;;;;5014182;28;20414;-77
2023/02/26 12:26:57;;;;;;;1.90;0.80;;;6.10;1.00;;;;;;5014280;28;20412;-77
2023/02/26 12:32:47;;;;;;;1.33;0.60;;;6.30;1.00;;;;;;5003029;28;20383;-76
2023/02/26 12:35:51;;;;;;;1.53;0.80;;;6.20;1.00;;;;;;5013994;28;20447;-76
2023/02/26 12:38:50;;;;;;;0.90;0.60;;;6.10;1.00;;;;;;5031297;28;20410;-76
2023/02/26 12:41:34;;;;;;;0.70;0.70;;;6.00;1.00;;;;;;5012281;28;20994;-75
2023/02/26 12:44:37;;;;;;;0.70;0.60;;;6.00;1.00;;;;;;5010357;28;20440;-76
2023/02/26 12:47:29;;;;;;;0.50;0.43;;;5.80;1.00;;;;;;4994808;28;20893;-78
2023/02/26 12:50:30;;;;;;;0.80;0.70;;;5.80;1.00;;;;;;5023300;28;20450;-76
2023/02/26 12:53:00;;;;;;;1.33;0.80;;;5.80;1.00;;;;;;5013348;28;20559;-79
2023/02/26 12:55:36;;;;;;;1.87;0.80;;;5.90;1.00;;;;;;5007841;28;20432;-82
2023/02/26 13:08:18;;;;;;;1.07;0.63;;;6.30;1.00;;;;;;5067590;28;20459;-80
2023/02/26 13:11:12;;;;;;;4.83;0.70;;;6.20;1.00;;;;;;5069362;28;20425;-76
2023/02/26 13:13:55;;;;;;;2.20;0.70;;;6.10;1.00;;;;;;5073599;28;20745;-75
2023/02/26 13:17:04;;;;;;;1.67;0.70;;;6.20;1.00;;;;;;5075475;28;20404;-79
2023/02/26 13:20:23;;;;;;;0.70;0.70;;;6.20;1.00;;;;;;5074802;28;20464;-79
2023/02/26 13:23:17;;;;;;;0.70;0.67;;;6.20;1.00;;;;;;5013048;28;20824;-78
2023/02/26 13:29:46;;;;;;;0.60;0.60;;;6.30;1.00;;;;;;5032721;28;20405;-79
2023/02/26 13:35:37;;;;;;;0.63;0.63;;;6.50;1.00;;;;;;5013002;28;20411;-78
2023/02/26 13:38:39;;;;;;;2.10;0.70;;;6.70;1.00;;;;;;5031289;28;20449;-78
2023/02/26 13:41:15;;;;;;;0.87;0.67;;;6.80;1.00;;;;;;5043046;28;20473;-75
2023/02/26 13:44:01;;;;;;;1.57;0.60;;;6.70;1.00;;;;;;5036511;28;20466;-75
2023/02/26 13:50:19;;;;;;;1.73;0.60;;;6.30;1.00;;;;;;5043809;28;20489;-79
2023/02/26 13:53:01;;;;;;;1.23;1.00;;;6.10;1.00;;;;;;5032320;28;20765;-80
2023/02/26 13:55:42;;;;;;;0.70;0.70;;;6.00;1.00;;;;;;5032132;28;20831;-79
2023/02/26 14:01:47;;;;;;;0.40;0.40;;;6.00;1.00;;;;;;5054413;28;20511;-76
2023/02/26 14:04:48;;;;;;;2.20;0.57;;;5.80;1.00;;;;;;5073808;28;20874;-76
2023/02/26 14:07:15;;;;;;;0.70;0.70;;;5.70;1.00;;;;;;5073806;28;20402;-76
2023/02/26 14:10:21;;;;;;;0.60;0.60;;;5.70;1.00;;;;;;5073483;28;20424;-79
2023/02/26 14:19:36;;;;;;;0.53;0.50;;;5.10;1.00;;;;;;5066147;28;20389;-79
2023/02/26 14:22:24;;;;;;;0.70;0.63;;;5.10;1.00;;;;;;5073796;28;20453;-80
2023/02/26 14:24:57;;;;;;;0.53;0.53;;;5.20;1.00;;;;;;5073689;28;20409;-80
2023/02/26 14:31:02;;;;;;;0.50;0.50;;;5.40;1.00;;;;;;5075573;28;20992;-79
2023/02/26 14:34:15;;;;;;;1.30;0.60;;;5.50;1.00;;;;;;5053781;28;20391;-75
2023/02/26 14:36:52;;;;;;;0.70;0.70;;;5.70;1.00;;;;;;5055618;28;20758;-75
2023/02/26 14:39:53;;;;;;;0.60;0.60;;;5.70;1.00;;;;;;5070172;28;20416;-75
2023/02/26 14:42:36;;;;;;;0.70;0.57;;;5.80;1.00;;;;;;5069777;28;21030;-75
2023/02/26 14:45:29;;;;;;;1.20;0.70;;;5.80;1.00;;;;;;5059511;28;20447;-76
2023/02/26 14:52:03;;;;;;;0.57;0.57;;;5.70;1.00;;;;;;5060606;28;20482;-80
2023/02/26 14:54:50;;;;;;;0.73;0.73;;;5.50;1.00;;;;;;5060584;28;20409;-80
2023/02/26 15:01:20;;;;;;;0.60;0.60;;;5.60;1.00;;;;;;5072988;28;20507;-80
2023/02/26 15:04:36;;;;;;;2.10;0.60;;;5.70;1.00;;;;;;5073529;28;20405;-76
2023/02/26 15:10:56;;;;;;;1.57;0.50;;;5.50;1.00;;;;;;4967541;28;20424;-75
2023/02/26 15:13:51;;;;;;;0.87;0.60;;;5.50;1.00;;;;;;4972631;28;20422;-75
2023/02/26 15:17:03;;;;;;;4.07;0.60;;;5.60;1.00;;;;;;4965911;28;20500;-75
2023/02/26 15:19:47;;;;;;;1.07;1.00;;;5.80;1.00;;;;;;4972626;28;20413;-79
2023/02/26 15:22:34;;;;;;;5.70;0.70;;;5.80;1.00;;;;;;4972387;28;20544;-81
2023/02/26 15:25:30;;;;;;;4.13;1.57;;;5.70;1.00;;;;;;4962022;28;20439;-81
2023/02/26 15:28:25;;;;;;;1.60;1.27;;;5.60;1.00;;;;;;4976208;28;20429;-80
2023/02/26 15:30:52;;;;;;;6.10;2.33;;;5.50;1.00;;;;;;4973126;28;20425;-81
2023/02/26 15:33:48;;;;;;;1.93;1.20;;;5.40;1.00;;;;;;4976538;28;20414;-81
2023/02/26 15:36:43;;;;;;;1.13;0.80;;;5.40;1.00;;;;;;4976084;28;20448;-79
2023/02/26 15:42:36;;;;;;;0.77;0.77;;;5.40;1.00;;;;;;4993733;28;20523;-81
2023/02/26 15:49:10;;;;;;;0.53;0.53;;;5.30;1.00;;;;;;5062375;28;20459;-79
2023/02/26 15:51:46;;;;;;;0.73;0.63;;;5.20;1.00;;;;;;5058253;28;20576;-78
2023/02/26 15:54:43;;;;;;;0.70;0.60;;;5.10;1.00;;;;;;5066949;28;20416;-79
2023/02/26 16:00:34;;;;;;;1.93;0.70;;;4.90;1.00;;;;;;5075908;28;20500;-79
2023/02/26 16:03:15;;;;;;;0.60;0.60;;;4.70;1.00;;;;;;5069709;28;20429;-76
2023/02/26 16:05:41;;;;;;;0.50;0.50;;;4.50;1.00;;;;;;5065451;28;20425;-75
2023/02/26 16:08:17;;;;;;;0.63;0.63;;;4.40;1.00;;;;;;5076035;28;20436;-75
2023/02/26 16:10:55;;;;;;;1.10;0.60;;;4.40;1.00;;;;;;5072389;28;20166;-75
2023/02/26 16:13:33;;;;;;;0.50;0.50;;;4.70;1.00;;;;;;5071303;28;20425;-74
2023/02/26 16:16:03;;;;;;;1.13;0.60;;;4.80;1.00;;;;;;5074848;28;20717;-74
2023/02/26 16:18:31;;;;;;;0.70;0.70;;;4.80;1.00;;;;;;5076732;28;20451;-75
2023/02/26 16:21:00;;;;;;;1.60;0.80;;;4.80;1.00;;;;;;5065410;28;20498;-75
2023/02/26 16:23:52;;;;;;;3.13;0.70;;;4.80;1.00;;;;;;5067614;28;20815;-75
2023/02/26 16:26:27;;;;;;;1.33;0.70;;;4.70;1.00;;;;;;5069877;28;20413;-75
2023/02/26 16:28:59;;;;;;;0.90;0.90;;;4.70;1.00;;;;;;5064367;28;20420;-72
2023/02/26 16:31:26;;;;;;;1.00;0.90;;;4.60;1.00;;;;;;5065036;28;20422;-72
2023/02/26 16:33:58;;;;;;;0.60;0.60;;;4.60;1.00;;;;;;5069684;28;20512;-73
2023/02/26 16:36:28;;;;;;;1.17;0.90;;;4.50;1.00;;;;;;5067879;28;20512;-73
2023/02/26 16:39:14;;;;;;;1.03;0.90;;;4.20;1.00;;;;;;5072338;28;20425;-73
2023/02/26 16:41:48;;;;;;;0.70;0.70;;;4.20;1.00;;;;;;5062984;28;20537;-73
2023/02/26 16:44:44;;;;;;;0.60;0.60;;;4.00;1.00;;;;;;5063189;28;20882;-74
2023/02/26 16:47:16;;;;;;;0.90;0.90;;;3.90;1.00;;;;;;5088556;28;20454;-75
2023/02/26 16:49:43;;;;;;;1.00;0.80;;;3.80;1.00;;;;;;5075291;28;20433;-76
2023/02/26 16:52:24;;;;;;;0.80;0.80;;;3.70;1.00;;;;;;5062411;28;20183;-76
2023/02/26 16:55:29;;;;;;;0.73;0.73;;;3.60;1.00;;;;;;5066666;28;20924;-76
2023/02/26 16:58:06;;;;;;;0.70;0.70;;;3.40;1.00;;;;;;5075115;28;21049;-77
2023/02/26 17:00:58;;;;;;;0.98;0.90;;;3.30;1.00;;;;;;5055195;28;20160;-78
2023/02/26 17:03:42;;;;;;;0.85;0.70;;;3.20;1.00;;;;;;5073576;28;20167;-74
2023/02/26 17:06:15;;;;;;;0.90;0.90;;;3.10;1.00;;;;;;5068797;28;20167;-74
2023/02/26 17:08:58;;;;;;;1.20;0.80;;;3.00;1.00;;;;;;5074370;28;20174;-75
2023/02/26 17:11:37;;;;;;;1.00;0.90;;;3.00;1.00;;;;;;5082034;28;20182;-75
2023/02/26 17:14:21;;;;;;;0.83;0.83;;;3.00;1.00;;;;;;5074720;28;20182;-75
2023/02/26 17:16:49;;;;;;;0.60;0.60;;;3.00;1.00;;;;;;5074339;28;20908;-75
2023/02/26 17:19:21;;;;;;;2.40;1.00;;;2.90;1.00;;;;;;5076190;28;20178;-75
2023/02/26 17:21:56;;;;;;;1.77;1.10;;;2.90;1.00;;;;;;5057624;28;20202;-74
2023/02/26 17:24:33;;;;;;;0.70;0.70;;;3.00;1.00;;;;;;5084148;28;20257;-74
2023/02/26 17:27:04;;;;;;;3.05;0.70;;;3.00;1.00;;;;;;5073349;28;20165;-75
2023/02/26 17:29:36;;;;;;;0.80;0.80;;;3.10;1.00;;;;;;5074803;28;20205;-75
2023/02/26 17:32:39;;;;;;;2.28;0.98;;;3.10;1.00;;;;;;5067725;28;20175;-76
2023/02/26 17:35:21;;;;;;;2.45;0.93;;;3.20;1.00;;;;;;5072664;28;20193;-75
2023/02/26 17:37:52;;;;;;;2.15;0.88;;;3.10;1.00;;;;;;5067330;28;20512;-74
2023/02/26 17:40:46;;;;;;;2.58;0.80;;;3.10;1.00;;;;;;5070971;28;20175;-74